createdAt,value
2019-01-06T00:02:18.167Z,15.60
2019-01-06T00:04:50.996Z,16.00
2019-01-06T00:07:33.915Z,15.30
2019-01-06T00:10:15.920Z,15.50
2019-01-06T00:12:49.287Z,15.80
2019-01-06T00:15:28.898Z,15.30
2019-01-06T00:18:02.015Z,15.70
2019-01-06T00:20:47.058Z,15.30
2019-01-06T00:23:32.145Z,15.80
2019-01-06T00:26:15.071Z,15.10
2019-01-06T00:28:52.011Z,14.90
2019-01-06T00:31:31.629Z,14.50
2019-01-06T00:34:18.902Z,14.70
2019-01-06T00:36:49.519Z,15.40
2019-01-06T00:39:31.702Z,14.50
2019-01-06T00:42:18.473Z,14.90
2019-01-06T00:44:57.690Z,14.40
2019-01-06T00:47:34.026Z,14.50
2019-01-06T00:50:10.175Z,13.70
2019-01-06T00:52:57.511Z,13.10
2019-01-06T00:55:44.742Z,13.50
2019-01-06T00:58:31.149Z,13.40
2019-01-06T01:01:03.992Z,13.40
2019-01-06T01:03:36.819Z,13.70
2019-01-06T01:06:25.178Z,13.60
2019-01-06T01:09:13.531Z,13.30
2019-01-06T01:11:47.313Z,13.30
2019-01-06T01:14:27.842Z,13.90
2019-01-06T01:17:04.327Z,14.20
2019-01-06T01:19:37.716Z,13.70
2019-01-06T01:22:11.059Z,13.30
2019-01-06T01:24:49.913Z,13.60
2019-01-06T01:27:36.204Z,13.50
2019-01-06T01:30:22.425Z,13.90
2019-01-06T01:32:58.874Z,14.30
2019-01-06T01:35:34.877Z,14.70
2019-01-06T01:38:05.784Z,14.20
2019-01-06T01:40:52.629Z,15.30
2019-01-06T01:43:38.554Z,14.30
2019-01-06T01:46:15.216Z,14.50
2019-01-06T01:48:45.378Z,14.00
2019-01-06T01:51:30.370Z,13.50
2019-01-06T01:54:00.675Z,13.40
2019-01-06T01:56:43.164Z,12.60
2019-01-06T01:59:20.354Z,12.80
2019-01-06T02:01:59.522Z,12.40
2019-01-06T02:04:33.485Z,12.90
2019-01-06T02:07:18.481Z,11.10
2019-01-06T02:09:51.313Z,10.40
2019-01-06T02:12:27.162Z,10.50
2019-01-06T02:15:06.628Z,9.70
2019-01-06T02:17:55.551Z,9.60
2019-01-06T02:20:28.911Z,9.60
2019-01-06T02:23:03.380Z,9.20
2019-01-06T02:25:34.309Z,9.60
2019-01-06T02:28:21.467Z,9.60
2019-01-06T02:31:08.143Z,10.30
2019-01-06T02:33:44.045Z,10.30
2019-01-06T02:36:17.173Z,10.20
2019-01-06T02:38:50.116Z,10.50
2019-01-06T02:41:20.346Z,10.10
2019-01-06T02:43:53.824Z,10.40
2019-01-06T02:46:42.184Z,11.40
2019-01-06T02:49:28.905Z,10.50
2019-01-06T02:52:15.513Z,9.70
2019-01-06T02:55:00.826Z,10.00
2019-01-06T02:57:47.281Z,9.70
2019-01-06T03:00:38.985Z,10.10
2019-01-06T03:03:12.400Z,9.80
2019-01-06T03:05:46.405Z,9.80
2019-01-06T03:08:25.584Z,9.10
2019-01-06T03:11:04.466Z,9.00
2019-01-06T03:13:43.622Z,8.90
2019-01-06T03:16:30.374Z,9.60
2019-01-06T03:19:16.951Z,9.90
2019-01-06T03:21:49.798Z,9.60
2019-01-06T03:24:26.026Z,9.80
2019-01-06T03:27:13.654Z,9.10
2019-01-06T03:29:55.650Z,11.80
2019-01-06T03:32:25.900Z,10.30
2019-01-06T03:35:01.984Z,10.90
2019-01-06T03:37:32.271Z,12.20
2019-01-06T03:40:05.671Z,9.80
2019-01-06T03:42:41.643Z,11.50
2019-01-06T03:45:15.115Z,9.70
2019-01-06T03:47:55.783Z,9.40
2019-01-06T03:50:41.140Z,8.00
2019-01-06T03:53:27.553Z,9.20
2019-01-06T03:56:15.698Z,9.70
2019-01-06T03:59:02.126Z,11.40
2019-01-06T04:01:47.509Z,14.80
2019-01-06T04:04:20.368Z,17.20
2019-01-06T04:06:50.889Z,19.70
2019-01-06T04:09:29.928Z,18.30
2019-01-06T04:12:18.092Z,20.50
2019-01-06T04:14:54.059Z,22.20
2019-01-06T04:17:43.201Z,22.60
2019-01-06T04:20:29.616Z,21.90
2019-01-06T04:23:09.409Z,25.90
2019-01-06T04:25:56.496Z,27.90
2019-01-06T04:28:32.809Z,30.50
2019-01-06T04:31:21.638Z,26.70
2019-01-06T04:33:52.335Z,29.70
2019-01-06T04:36:28.530Z,31.10
2019-01-06T04:38:59.729Z,30.60
2019-01-06T04:41:35.590Z,37.70
2019-01-06T04:44:06.792Z,40.10
2019-01-06T04:46:51.845Z,42.80
2019-01-06T04:49:30.798Z,47.20
2019-01-06T04:52:01.047Z,48.10
2019-01-06T04:54:33.911Z,52.80
2019-01-06T04:57:07.196Z,56.90
2019-01-06T04:59:43.750Z,57.60
2019-01-06T05:02:14.498Z,58.80
2019-01-06T05:04:51.242Z,59.70
2019-01-06T05:07:27.702Z,62.70
2019-01-06T05:10:01.105Z,62.70
2019-01-06T05:12:34.862Z,64.40
2019-01-06T05:15:14.928Z,64.50
2019-01-06T05:17:50.734Z,64.60
2019-01-06T05:20:21.208Z,63.80
2019-01-06T05:22:52.287Z,59.00
2019-01-06T05:25:39.138Z,61.70
2019-01-06T05:28:25.660Z,62.10
2019-01-06T05:30:56.045Z,55.80
2019-01-06T05:33:41.070Z,49.30
2019-01-06T05:36:27.839Z,46.20
2019-01-06T05:38:58.761Z,48.80
2019-01-06T05:41:29.966Z,45.00
2019-01-06T05:44:11.843Z,40.40
2019-01-06T05:46:45.071Z,40.60
2019-01-06T05:49:15.724Z,38.30
2019-01-06T05:51:47.210Z,36.70
2019-01-06T05:54:18.065Z,37.00
2019-01-06T05:57:04.312Z,35.80
2019-01-06T05:59:43.573Z,34.50
2019-01-06T06:02:22.766Z,31.40
2019-01-06T06:04:53.104Z,31.80
2019-01-06T06:07:26.258Z,33.00
2019-01-06T06:09:59.204Z,33.80
2019-01-06T06:12:47.488Z,36.50
2019-01-06T06:15:34.095Z,33.40
2019-01-06T06:18:16.072Z,32.60
2019-01-06T06:21:03.472Z,31.00
2019-01-06T06:23:42.581Z,29.00
2019-01-06T06:26:29.764Z,28.80
2019-01-06T06:29:03.205Z,29.20
2019-01-06T06:31:36.929Z,29.70
2019-01-06T06:34:08.071Z,28.50
2019-01-06T06:36:55.477Z,27.80
2019-01-06T06:39:31.715Z,29.50
2019-01-06T06:42:02.044Z,29.20
2019-01-06T06:44:38.235Z,28.80
2019-01-06T06:47:14.780Z,29.40
2019-01-06T06:49:52.453Z,29.80
2019-01-06T06:52:35.239Z,30.60
2019-01-06T06:55:14.865Z,32.00
2019-01-06T06:58:20.327Z,32.90
2019-01-06T07:00:59.624Z,33.70
2019-01-06T07:03:55.834Z,33.90
2019-01-06T07:06:32.741Z,34.00
2019-01-06T07:09:18.286Z,36.00
2019-01-06T07:12:05.182Z,36.10
2019-01-06T07:14:41.953Z,33.00
2019-01-06T07:17:46.805Z,34.50
2019-01-06T07:20:24.773Z,34.10
2019-01-06T07:23:12.827Z,35.30
2019-01-06T07:25:46.523Z,34.80
2019-01-06T07:28:17.248Z,36.20
2019-01-06T07:30:50.860Z,33.50
2019-01-06T07:33:38.308Z,33.60
2019-01-06T07:36:18.438Z,33.60
2019-01-06T07:39:00.841Z,34.10
2019-01-06T07:41:39.748Z,35.00
2019-01-06T07:44:17.205Z,35.30
2019-01-06T07:47:03.899Z,34.50
2019-01-06T07:49:46.754Z,34.60
2019-01-06T07:52:20.099Z,33.90
2019-01-06T07:54:50.936Z,34.80
2019-01-06T07:57:30.491Z,35.70
2019-01-06T08:00:14.864Z,35.70
2019-01-06T08:02:55.671Z,34.50
2019-01-06T08:05:38.417Z,34.40
2019-01-06T08:08:11.948Z,34.90
2019-01-06T08:10:54.558Z,33.70
2019-01-06T08:13:34.048Z,34.40
2019-01-06T08:16:19.549Z,36.20
2019-01-06T08:18:50.271Z,36.80
2019-01-06T08:21:33.023Z,36.80
2019-01-06T08:24:04.053Z,37.30
2019-01-06T08:26:37.102Z,36.60
2019-01-06T08:29:16.153Z,37.30
2019-01-06T08:32:04.093Z,37.00
2019-01-06T08:34:38.364Z,40.30
2019-01-06T08:37:18.210Z,41.40
2019-01-06T08:39:51.891Z,42.20
2019-01-06T08:42:40.345Z,43.00
2019-01-06T08:45:14.429Z,43.20
2019-01-06T08:48:03.537Z,42.50
2019-01-06T08:50:34.242Z,44.30
2019-01-06T08:53:23.537Z,43.60
2019-01-06T08:56:10.993Z,44.00
2019-01-06T08:58:41.511Z,42.30
2019-01-06T09:01:17.885Z,41.50
2019-01-06T09:04:05.074Z,40.80
2019-01-06T09:06:43.908Z,40.00
2019-01-06T09:09:32.528Z,39.90
2019-01-06T09:12:02.855Z,40.00
2019-01-06T09:14:50.460Z,39.00
2019-01-06T09:17:20.687Z,39.80
2019-01-06T09:19:51.481Z,40.10
2019-01-06T09:22:38.778Z,40.80
2019-01-06T09:25:17.088Z,43.90
2019-01-06T09:27:47.853Z,45.40
2019-01-06T09:30:30.865Z,46.20
2019-01-06T09:33:07.937Z,47.90
2019-01-06T09:35:41.282Z,47.40
2019-01-06T09:38:12.145Z,47.80
2019-01-06T09:40:43.131Z,48.10
2019-01-06T09:43:25.839Z,49.50
2019-01-06T09:46:15.405Z,48.90
2019-01-06T09:48:51.569Z,49.50
2019-01-06T09:51:31.963Z,50.40
2019-01-06T09:54:08.477Z,51.00
2019-01-06T09:56:51.515Z,51.60
2019-01-06T09:59:36.509Z,51.40
2019-01-06T10:02:23.387Z,52.10
2019-01-06T10:05:12.867Z,52.40
2019-01-06T10:07:49.676Z,54.50
2019-01-06T10:10:23.734Z,57.50
2019-01-06T10:13:11.375Z,59.50
2019-01-06T10:15:44.818Z,61.50
2019-01-06T10:18:27.185Z,63.40
2019-01-06T10:20:57.917Z,64.70
2019-01-06T10:23:28.759Z,66.50
2019-01-06T10:26:00.051Z,66.60
2019-01-06T10:28:31.337Z,67.30
2019-01-06T10:31:14.631Z,66.20
2019-01-06T10:33:54.343Z,66.60
2019-01-06T10:36:36.432Z,68.10
2019-01-06T10:39:20.592Z,68.80
2019-01-06T10:41:56.803Z,69.70
2019-01-06T10:44:42.345Z,70.40
2019-01-06T10:47:15.926Z,70.10
2019-01-06T10:49:55.831Z,69.70
2019-01-06T10:52:29.865Z,69.70
2019-01-06T10:55:17.488Z,69.70
2019-01-06T10:57:48.416Z,69.80
2019-01-06T11:00:37.360Z,69.00
2019-01-06T11:03:10.790Z,68.70
2019-01-06T11:05:57.036Z,67.90
2019-01-06T11:08:34.140Z,68.10
2019-01-06T11:11:11.480Z,66.90
2019-01-06T11:13:44.807Z,67.10
2019-01-06T11:16:32.162Z,67.80
2019-01-06T11:19:06.086Z,67.30
2019-01-06T11:21:42.929Z,67.60
2019-01-06T11:24:19.343Z,68.30
2019-01-06T11:27:02.282Z,68.50
2019-01-06T11:29:33.060Z,69.10
2019-01-06T11:32:03.564Z,69.40
2019-01-06T11:34:34.509Z,70.10
2019-01-06T11:37:10.905Z,69.90
2019-01-06T11:39:58.213Z,71.20
2019-01-06T11:42:28.967Z,71.40
2019-01-06T11:45:08.728Z,71.40
2019-01-06T11:47:45.233Z,71.80
2019-01-06T11:50:15.805Z,72.50
2019-01-06T11:52:58.687Z,72.60
2019-01-06T11:55:29.640Z,72.80
2019-01-06T11:58:16.494Z,72.90
2019-01-06T12:00:56.756Z,72.70
2019-01-06T12:03:43.670Z,72.30
2019-01-06T12:06:14.592Z,72.00
2019-01-06T12:08:48.835Z,72.30
2019-01-06T12:11:19.656Z,72.10
2019-01-06T12:14:06.281Z,71.80
2019-01-06T12:16:53.823Z,72.40
2019-01-06T12:19:33.687Z,73.00
2019-01-06T12:22:09.364Z,74.40
2019-01-06T12:24:40.283Z,74.50
2019-01-06T12:27:14.334Z,75.30
2019-01-06T12:30:00.976Z,75.60
2019-01-06T12:32:34.446Z,75.90
2019-01-06T12:35:13.947Z,75.60
2019-01-06T12:38:03.280Z,74.50
2019-01-06T12:40:51.322Z,74.00
2019-01-06T12:43:25.657Z,73.50
2019-01-06T12:46:08.131Z,72.70
2019-01-06T12:48:41.363Z,72.30
2019-01-06T12:51:11.575Z,71.80
2019-01-06T12:53:58.760Z,71.00
2019-01-06T12:56:45.713Z,71.10
2019-01-06T12:59:29.138Z,70.80
2019-01-06T13:02:03.672Z,70.90
2019-01-06T13:04:34.517Z,70.80
2019-01-06T13:07:11.482Z,71.10
2019-01-06T13:09:51.031Z,71.40
2019-01-06T13:12:40.041Z,71.80
2019-01-06T13:15:10.997Z,72.40
2019-01-06T13:17:41.828Z,72.50
2019-01-06T13:20:15.221Z,72.50
2019-01-06T13:22:52.721Z,72.20
2019-01-06T13:25:23.698Z,72.50
2019-01-06T13:28:01.365Z,71.80
2019-01-06T13:30:34.475Z,71.50
2019-01-06T13:33:20.804Z,71.50
2019-01-06T13:36:07.470Z,71.00
2019-01-06T13:38:37.693Z,70.90
2019-01-06T13:41:13.792Z,71.00
2019-01-06T13:44:00.953Z,71.10
2019-01-06T13:46:46.830Z,71.30
2019-01-06T13:49:20.583Z,71.60
2019-01-06T13:51:54.282Z,71.00
2019-01-06T13:54:30.315Z,70.40
2019-01-06T13:57:16.802Z,70.60
2019-01-06T14:00:02.690Z,70.10
2019-01-06T14:02:40.180Z,70.50
2019-01-06T14:05:16.678Z,70.90
2019-01-06T14:08:05.808Z,71.30
2019-01-06T14:10:42.538Z,71.40
2019-01-06T14:13:15.853Z,71.80
2019-01-06T14:16:02.825Z,71.10
2019-01-06T14:18:48.213Z,71.40
2019-01-06T14:21:33.211Z,70.90
2019-01-06T14:24:18.921Z,70.20
2019-01-06T14:26:49.153Z,69.00
2019-01-06T14:29:35.864Z,68.10
2019-01-06T14:32:09.682Z,67.30
2019-01-06T14:34:43.367Z,67.30
2019-01-06T14:37:29.548Z,67.60
2019-01-06T14:40:00.197Z,66.50
2019-01-06T14:42:47.301Z,66.50
2019-01-06T14:45:34.618Z,66.50
2019-01-06T14:48:08.421Z,65.70
2019-01-06T14:50:42.094Z,64.20
2019-01-06T14:53:18.487Z,64.10
2019-01-06T14:56:04.424Z,63.60
2019-01-06T14:58:40.903Z,63.20
2019-01-06T15:01:11.124Z,63.10
2019-01-06T15:03:53.328Z,61.50
2019-01-06T15:06:23.496Z,60.80
2019-01-06T15:08:57.223Z,59.70
2019-01-06T15:11:44.294Z,59.10
2019-01-06T15:14:29.482Z,58.80
2019-01-06T15:17:16.928Z,57.80
2019-01-06T15:20:05.989Z,57.80
2019-01-06T15:22:52.197Z,58.00
2019-01-06T15:25:25.585Z,58.90
2019-01-06T15:27:56.346Z,58.40
2019-01-06T15:30:33.508Z,59.00
2019-01-06T15:33:05.252Z,58.30
2019-01-06T15:35:38.218Z,57.50
2019-01-06T15:38:09.104Z,58.00
2019-01-06T15:40:41.949Z,58.40
2019-01-06T15:43:20.849Z,58.00
2019-01-06T15:45:59.688Z,58.40
2019-01-06T15:48:29.899Z,59.50
2019-01-06T15:51:08.754Z,59.50
2019-01-06T15:53:45.161Z,59.10
2019-01-06T15:56:35.463Z,59.00
2019-01-06T15:59:17.976Z,58.20
2019-01-06T16:01:58.382Z,57.70
2019-01-06T16:04:38.096Z,58.60
2019-01-06T16:07:08.863Z,58.00
2019-01-06T16:09:42.552Z,57.50
2019-01-06T16:12:30.599Z,57.50
2019-01-06T16:15:07.457Z,57.80
2019-01-06T16:17:54.768Z,57.60
2019-01-06T16:20:25.558Z,56.80
2019-01-06T16:22:59.246Z,57.40
2019-01-06T16:25:46.832Z,57.70
2019-01-06T16:28:18.529Z,55.80
2019-01-06T16:30:58.921Z,57.20
2019-01-06T16:33:45.441Z,56.00
2019-01-06T16:36:18.710Z,56.10
2019-01-06T16:38:48.927Z,56.10
2019-01-06T16:41:36.994Z,55.10
2019-01-06T16:44:10.069Z,54.20
2019-01-06T16:46:57.419Z,53.50
2019-01-06T16:49:27.809Z,53.20
2019-01-06T16:52:14.626Z,52.30
2019-01-06T16:54:47.818Z,52.40
2019-01-06T16:57:30.454Z,52.40
2019-01-06T17:00:06.996Z,51.60
2019-01-06T17:02:43.564Z,51.40
2019-01-06T17:05:14.348Z,51.40
2019-01-06T17:08:02.172Z,49.90
2019-01-06T17:10:47.660Z,49.80
2019-01-06T17:13:24.376Z,50.10
2019-01-06T17:15:57.206Z,48.40
2019-01-06T17:18:42.509Z,49.00
2019-01-06T17:21:28.692Z,48.30
2019-01-06T17:23:58.882Z,47.30
2019-01-06T17:26:32.604Z,48.00
2019-01-06T17:29:12.736Z,46.10
2019-01-06T17:31:55.348Z,46.30
2019-01-06T17:34:32.096Z,45.80
2019-01-06T17:37:02.828Z,46.90
2019-01-06T17:39:51.803Z,48.40
2019-01-06T17:42:28.036Z,47.70
2019-01-06T17:45:11.096Z,46.70
2019-01-06T17:47:41.837Z,47.40
2019-01-06T17:50:15.132Z,47.90
2019-01-06T17:53:02.468Z,49.10
2019-01-06T17:55:49.289Z,50.70
2019-01-06T17:58:36.490Z,50.60
2019-01-06T18:01:15.844Z,52.70
2019-01-06T18:03:58.266Z,54.50
2019-01-06T18:06:31.405Z,56.90
2019-01-06T18:09:17.287Z,58.30
2019-01-06T18:11:48.338Z,58.80
2019-01-06T18:14:35.993Z,59.40
2019-01-06T18:17:06.699Z,58.60
2019-01-06T18:19:54.070Z,60.10
2019-01-06T18:22:25.533Z,60.30
2019-01-06T18:25:11.793Z,62.00
2019-01-06T18:27:46.437Z,62.50
2019-01-06T18:30:23.372Z,62.90
2019-01-06T18:33:12.282Z,63.30
2019-01-06T18:35:59.499Z,64.00
2019-01-06T18:38:38.802Z,65.20
2019-01-06T18:41:15.287Z,63.90
2019-01-06T18:43:48.131Z,64.20
2019-01-06T18:46:18.383Z,64.80
2019-01-06T18:49:01.263Z,64.90
2019-01-06T18:51:36.971Z,65.70
2019-01-06T18:54:10.419Z,66.60
2019-01-06T18:56:58.984Z,67.30
2019-01-06T18:59:32.552Z,67.80
2019-01-06T19:02:20.379Z,67.80
2019-01-06T19:05:10.131Z,67.40
2019-01-06T19:07:47.084Z,68.60
2019-01-06T19:10:33.157Z,68.40
2019-01-06T19:13:20.284Z,67.00
2019-01-06T19:15:53.846Z,66.50
2019-01-06T19:18:25.545Z,67.20
2019-01-06T19:20:59.915Z,67.70
2019-01-06T19:23:47.571Z,67.70
2019-01-06T19:26:21.382Z,68.40
2019-01-06T19:29:08.439Z,67.60
2019-01-06T19:31:41.259Z,68.70
2019-01-06T19:34:18.204Z,70.00
2019-01-06T19:36:48.367Z,69.60
2019-01-06T19:39:35.406Z,69.00
2019-01-06T19:42:22.005Z,63.80
2019-01-06T19:44:55.922Z,62.70
2019-01-06T19:47:33.309Z,61.40
2019-01-06T19:50:06.533Z,59.30
2019-01-06T19:52:43.076Z,56.20
2019-01-06T19:55:25.691Z,55.20
2019-01-06T19:58:08.502Z,55.20
2019-01-06T20:00:48.257Z,55.70
2019-01-06T20:03:30.633Z,57.00
2019-01-06T20:06:03.942Z,59.70
2019-01-06T20:08:40.568Z,61.80
2019-01-06T20:11:14.569Z,63.00
2019-01-06T20:14:01.744Z,63.10
2019-01-06T20:16:47.776Z,63.50
2019-01-06T20:19:24.386Z,62.90
2019-01-06T20:22:00.440Z,62.30
2019-01-06T20:24:32.221Z,63.20
2019-01-06T20:27:19.658Z,64.60
2019-01-06T20:30:08.647Z,66.20
2019-01-06T20:32:48.541Z,67.50
2019-01-06T20:35:36.076Z,68.40
2019-01-06T20:38:07.122Z,68.40
2019-01-06T20:40:54.417Z,70.00
2019-01-06T20:43:27.775Z,71.30
2019-01-06T20:46:01.536Z,72.10
2019-01-06T20:48:31.947Z,70.80
2019-01-06T20:51:05.602Z,71.70
2019-01-06T20:53:53.507Z,72.80
2019-01-06T20:56:38.666Z,73.30
2019-01-06T20:59:14.459Z,74.70
2019-01-06T21:01:59.477Z,76.40
2019-01-06T21:04:35.324Z,77.60
2019-01-06T21:07:08.785Z,78.00
2019-01-06T21:09:39.501Z,78.20
2019-01-06T21:12:27.280Z,78.60
2019-01-06T21:15:16.427Z,79.30
2019-01-06T21:17:47.245Z,80.30
2019-01-06T21:20:17.863Z,81.20
2019-01-06T21:22:48.705Z,82.20
2019-01-06T21:25:28.228Z,83.10
2019-01-06T21:27:59.914Z,83.80
2019-01-06T21:30:47.051Z,84.40
2019-01-06T21:33:33.423Z,84.50
2019-01-06T21:36:21.867Z,85.20
2019-01-06T21:39:06.983Z,85.20
2019-01-06T21:41:43.332Z,84.80
2019-01-06T21:44:16.165Z,85.10
2019-01-06T21:47:05.102Z,85.50
2019-01-06T21:49:35.383Z,86.10
2019-01-06T21:52:08.577Z,86.10
2019-01-06T21:54:56.062Z,86.30
2019-01-06T21:57:32.180Z,86.60
2019-01-06T22:00:12.607Z,87.00
2019-01-06T22:02:50.215Z,86.90
2019-01-06T22:05:21.445Z,87.10
2019-01-06T22:08:08.526Z,87.30
2019-01-06T22:10:38.803Z,87.40
2019-01-06T22:13:21.050Z,87.50
2019-01-06T22:16:07.666Z,87.50
2019-01-06T22:18:37.960Z,87.70
2019-01-06T22:21:08.167Z,87.90
2019-01-06T22:23:38.512Z,87.70
2019-01-06T22:26:11.264Z,87.20
2019-01-06T22:28:47.340Z,86.70
2019-01-06T22:31:33.830Z,86.50
2019-01-06T22:34:16.908Z,85.40
2019-01-06T22:36:47.940Z,84.60
2019-01-06T22:39:27.561Z,84.40
2019-01-06T22:42:00.947Z,83.60
2019-01-06T22:44:37.712Z,82.60
2019-01-06T22:47:14.097Z,82.20
2019-01-06T22:50:00.449Z,82.40
2019-01-06T22:52:47.832Z,81.80
2019-01-06T22:55:35.115Z,81.50
2019-01-06T22:58:09.350Z,82.50
2019-01-06T23:00:43.336Z,81.80
2019-01-06T23:03:16.627Z,81.80
2019-01-06T23:05:53.122Z,81.40
2019-01-06T23:08:40.645Z,80.30
2019-01-06T23:11:14.029Z,80.20
2019-01-06T23:13:50.075Z,79.80
2019-01-06T23:16:20.332Z,80.20
2019-01-06T23:18:56.889Z,81.40
2019-01-06T23:21:36.437Z,81.50
2019-01-06T23:24:20.637Z,80.60
2019-01-06T23:26:51.322Z,79.80
2019-01-06T23:29:22.040Z,79.10
2019-01-06T23:32:01.580Z,79.30
2019-01-06T23:34:32.323Z,78.40
2019-01-06T23:37:03.375Z,77.20
2019-01-06T23:39:37.133Z,77.80
2019-01-06T23:42:07.810Z,77.30
2019-01-06T23:44:41.509Z,77.60
2019-01-06T23:47:24.406Z,77.20
2019-01-06T23:49:57.736Z,77.90
2019-01-06T23:52:44.132Z,78.20
2019-01-06T23:55:31.556Z,77.90
2019-01-06T23:58:13.568Z,77.50
